FLPCG LFLE-LFLE
Flight info
| Callsign | FLPCG |
|---|---|
| Flight time | 0h 39m |
| Altitude | 2000 |
| Route | DCT |
| Aircraft | DR40/L-L/7000 |
Departure
| Time | 2026-05-07 19:02 |
|---|---|
| Airport | Chambéry Challes-les-Eaux Airfield (LFLE) |
Arrival
| Time | 2026-05-07 19:41 |
|---|---|
| Airport | Chambéry Challes-les-Eaux Airfield (LFLE) |
| Time | Latitude | Longitude | Altitude | Speed | Heading |
|---|---|---|---|---|---|
| 2026-05-07 18:42 | 45.55806 | 5.97607 | 959 ft | 0 kts | 322° |
| 2026-05-07 18:55 | 45.55823 | 5.97634 | 957 ft | 12 kts | 96° |
| 2026-05-07 18:55 | 45.55716 | 5.97745 | 956 ft | 29 kts | 145° |
| 2026-05-07 18:55 | 45.55677 | 5.97862 | 955 ft | 9 kts | 50° |
| 2026-05-07 18:55 | 45.55681 | 5.97871 | 955 ft | 0 kts | 57° |
| 2026-05-07 19:00 | 45.55699 | 5.97903 | 955 ft | 9 kts | 52° |
| 2026-05-07 19:00 | 45.55759 | 5.97889 | 956 ft | 13 kts | 323° |
| 2026-05-07 19:01 | 45.55805 | 5.97841 | 958 ft | 31 kts | 322° |
| 2026-05-07 19:01 | 45.55989 | 5.97646 | 961 ft | 68 kts | 325° |
| 2026-05-07 19:01 | 45.56225 | 5.97406 | 1015 ft | 83 kts | 323° |
| 2026-05-07 19:02 | 45.56690 | 5.96917 | 1201 ft | 90 kts | 322° |
| 2026-05-07 19:02 | 45.57112 | 5.96355 | 1508 ft | 84 kts | 313° |
| 2026-05-07 19:02 | 45.57355 | 5.95464 | 1428 ft | 117 kts | 277° |
| 2026-05-07 19:02 | 45.57474 | 5.94326 | 1578 ft | 113 kts | 276° |
| 2026-05-07 19:03 | 45.57501 | 5.93241 | 1805 ft | 109 kts | 272° |
| 2026-05-07 19:03 | 45.57530 | 5.92207 | 2184 ft | 85 kts | 282° |
| 2026-05-07 19:03 | 45.57572 | 5.91378 | 2404 ft | 85 kts | 273° |
| 2026-05-07 19:03 | 45.57461 | 5.90541 | 2415 ft | 89 kts | 254° |
| 2026-05-07 19:04 | 45.57417 | 5.89714 | 2623 ft | 93 kts | 294° |
| 2026-05-07 19:04 | 45.57901 | 5.89130 | 2797 ft | 98 kts | 344° |
| 2026-05-07 19:04 | 45.58697 | 5.88880 | 2600 ft | 129 kts | 350° |
| 2026-05-07 19:04 | 45.59237 | 5.88741 | 2594 ft | 131 kts | 353° |
| 2026-05-07 19:06 | 45.59793 | 5.88631 | 2666 ft | 127 kts | 354° |
| 2026-05-07 19:06 | 45.61550 | 5.89081 | 2534 ft | 137 kts | 6° |
| 2026-05-07 19:06 | 45.62531 | 5.89129 | 2358 ft | 143 kts | 1° |
| 2026-05-07 19:07 | 45.63536 | 5.89135 | 2097 ft | 152 kts | 357° |
| 2026-05-07 19:07 | 45.63972 | 5.89108 | 2078 ft | 148 kts | 357° |
| 2026-05-07 19:07 | 45.64718 | 5.89045 | 1977 ft | 148 kts | 1° |
| 2026-05-07 19:07 | 45.65765 | 5.89172 | 1856 ft | 145 kts | 1° |
| 2026-05-07 19:08 | 45.66142 | 5.89184 | 1790 ft | 146 kts | 359° |
| 2026-05-07 19:09 | 45.66207 | 5.89183 | 1792 ft | 145 kts | 358° |
| 2026-05-07 19:09 | 45.67194 | 5.89148 | 1805 ft | 140 kts | 358° |
| 2026-05-07 19:09 | 45.68066 | 5.88911 | 2043 ft | 126 kts | 338° |
| 2026-05-07 19:10 | 45.68741 | 5.88118 | 1819 ft | 138 kts | 306° |
| 2026-05-07 19:10 | 45.69366 | 5.87041 | 1629 ft | 143 kts | 322° |
| 2026-05-07 19:10 | 45.70227 | 5.86696 | 1472 ft | 126 kts | 9° |
| 2026-05-07 19:10 | 45.71034 | 5.87011 | 1378 ft | 116 kts | 23° |
| 2026-05-07 19:11 | 45.71736 | 5.87543 | 1212 ft | 116 kts | 30° |
| 2026-05-07 19:11 | 45.72369 | 5.88218 | 1110 ft | 115 kts | 56° |
| 2026-05-07 19:11 | 45.72255 | 5.89339 | 1101 ft | 126 kts | 148° |
| 2026-05-07 19:11 | 45.71533 | 5.89580 | 1331 ft | 109 kts | 174° |
| 2026-05-07 19:12 | 45.70879 | 5.89653 | 1328 ft | 78 kts | 188° |
| 2026-05-07 19:12 | 45.70297 | 5.89820 | 1272 ft | 67 kts | 157° |
| 2026-05-07 19:12 | 45.69721 | 5.90233 | 1064 ft | 114 kts | 154° |
| 2026-05-07 19:12 | 45.69104 | 5.90706 | 1498 ft | 90 kts | 154° |
| 2026-05-07 19:13 | 45.65355 | 5.93365 | 3161 ft | 94 kts | 147° |
| 2026-05-07 19:13 | 45.61725 | 5.96557 | 5114 ft | 75 kts | 165° |
| 2026-05-07 19:13 | 45.61143 | 5.96566 | 5128 ft | 100 kts | 195° |
| 2026-05-07 19:13 | 45.60576 | 5.97144 | 5031 ft | 121 kts | 107° |
| 2026-05-07 19:14 | 45.60697 | 5.98375 | 4836 ft | 136 kts | 55° |
| 2026-05-07 19:14 | 45.63634 | 6.01311 | 4538 ft | 138 kts | 36° |
| 2026-05-07 19:14 | 45.66057 | 6.03949 | 4265 ft | 140 kts | 35° |
| 2026-05-07 19:14 | 45.66885 | 6.04663 | 4318 ft | 130 kts | 18° |
| 2026-05-07 19:15 | 45.67620 | 6.05479 | 3882 ft | 149 kts | 62° |
| 2026-05-07 19:15 | 45.67997 | 6.06717 | 3448 ft | 117 kts | 55° |
| 2026-05-07 19:15 | 45.68114 | 6.06898 | 3391 ft | 120 kts | 36° |
| 2026-05-07 19:25 | 45.68425 | 6.07207 | 3324 ft | 121 kts | 34° |
| 2026-05-07 19:25 | 45.69033 | 6.07832 | 3179 ft | 104 kts | 38° |
| 2026-05-07 19:25 | 45.69418 | 6.08322 | 3149 ft | 101 kts | 46° |
| 2026-05-07 19:29 | 45.69461 | 6.08391 | 3162 ft | 99 kts | 47° |
| 2026-05-07 19:29 | 45.69549 | 6.08536 | 3140 ft | 100 kts | 47° |
| 2026-05-07 19:31 | 45.69871 | 6.09055 | 2891 ft | 116 kts | 50° |
| 2026-05-07 19:31 | 45.70295 | 6.10007 | 2696 ft | 116 kts | 73° |
| 2026-05-07 19:31 | 45.70303 | 6.11022 | 2560 ft | 77 kts | 93° |
| 2026-05-07 19:31 | 45.70141 | 6.11866 | 2413 ft | 95 kts | 124° |
| 2026-05-07 19:32 | 45.69669 | 6.12436 | 2410 ft | 91 kts | 120° |
| 2026-05-07 19:32 | 45.69235 | 6.12806 | 2478 ft | 66 kts | 180° |
| 2026-05-07 19:32 | 45.69333 | 6.12460 | 2439 ft | 77 kts | 354° |
| 2026-05-07 19:32 | 45.69900 | 6.12386 | 2333 ft | 91 kts | 337° |
| 2026-05-07 19:33 | 45.70538 | 6.11869 | 2234 ft | 121 kts | 323° |
| 2026-05-07 19:33 | 45.71278 | 6.11394 | 2180 ft | 102 kts | 326° |
| 2026-05-07 19:33 | 45.71023 | 6.10726 | 2176 ft | 110 kts | 184° |
| 2026-05-07 19:33 | 45.70405 | 6.11313 | 2379 ft | 110 kts | 133° |
| 2026-05-07 19:34 | 45.69796 | 6.12040 | 2472 ft | 119 kts | 144° |
| 2026-05-07 19:34 | 45.69153 | 6.12751 | 2663 ft | 113 kts | 150° |
| 2026-05-07 19:34 | 45.68593 | 6.13373 | 2557 ft | 100 kts | 134° |
| 2026-05-07 19:34 | 45.68043 | 6.13932 | 2509 ft | 92 kts | 133° |
| 2026-05-07 19:35 | 45.67608 | 6.14469 | 2348 ft | 87 kts | 162° |
| 2026-05-07 19:35 | 45.67009 | 6.14781 | 2376 ft | 103 kts | 139° |
| 2026-05-07 19:35 | 45.66512 | 6.15589 | 2481 ft | 106 kts | 117° |
| 2026-05-07 19:35 | 45.66653 | 6.16541 | 2666 ft | 105 kts | 26° |
| 2026-05-07 19:36 | 45.67118 | 6.16056 | 2632 ft | 119 kts | 248° |
| 2026-05-07 19:36 | 45.66306 | 6.16092 | 2320 ft | 140 kts | 154° |
| 2026-05-07 19:36 | 45.66068 | 6.16301 | 2357 ft | 132 kts | 151° |
| 2026-05-07 19:37 | 45.65971 | 6.16373 | 2420 ft | 128 kts | 155° |
| 2026-05-07 19:37 | 45.63584 | 6.15898 | 2691 ft | 132 kts | 199° |
| 2026-05-07 19:37 | 45.57754 | 6.13456 | 3364 ft | 138 kts | 201° |
| 2026-05-07 19:38 | 45.56843 | 6.12936 | 3273 ft | 141 kts | 202° |
| 2026-05-07 19:38 | 45.55691 | 6.12091 | 3147 ft | 145 kts | 210° |
| 2026-05-07 19:38 | 45.52205 | 6.08884 | 2440 ft | 152 kts | 223° |
| 2026-05-07 19:38 | 45.51503 | 6.07791 | 2333 ft | 149 kts | 230° |
| 2026-05-07 19:39 | 45.50537 | 6.05564 | 2045 ft | 151 kts | 253° |
| 2026-05-07 19:39 | 45.50499 | 6.03545 | 1897 ft | 146 kts | 285° |
| 2026-05-07 19:39 | 45.51007 | 6.02331 | 1854 ft | 142 kts | 315° |
| 2026-05-07 19:39 | 45.51699 | 6.01364 | 1867 ft | 139 kts | 318° |
| 2026-05-07 19:40 | 45.52422 | 6.00467 | 1825 ft | 140 kts | 323° |
| 2026-05-07 19:40 | 45.53282 | 5.99755 | 1661 ft | 139 kts | 336° |
| 2026-05-07 19:40 | 45.54100 | 5.99283 | 1408 ft | 112 kts | 339° |
| 2026-05-07 19:40 | 45.54739 | 5.98887 | 1264 ft | 98 kts | 331° |
| 2026-05-07 19:41 | 45.55319 | 5.98355 | 1084 ft | 97 kts | 321° |
| 2026-05-07 19:41 | 45.55828 | 5.97818 | 958 ft | 83 kts | 322° |
| 2026-05-07 19:41 | 45.56196 | 5.97431 | 963 ft | 52 kts | 326° |
| 2026-05-07 19:41 | 45.56356 | 5.97268 | 976 ft | 10 kts | 324° |
| 2026-05-07 19:42 | 45.56419 | 5.97199 | 973 ft | 0 kts | 315° |